createdAt,value
2019-05-25T00:02:40.695Z,88.94
2019-05-25T00:12:55.911Z,89.71
2019-05-25T00:19:32.823Z,89.86
2019-05-25T00:26:02.922Z,89.92
2019-05-25T00:32:29.439Z,90.00
2019-05-25T00:38:34.371Z,90.25
2019-05-25T00:45:01.887Z,90.53
2019-05-25T00:51:30.047Z,90.42
2019-05-25T00:57:55.637Z,90.50
2019-05-25T01:04:32.546Z,90.77
2019-05-25T01:14:33.745Z,90.06
2019-05-25T01:20:59.569Z,91.05
2019-05-25T01:27:27.417Z,90.72
2019-05-25T01:37:19.067Z,90.63
2019-05-25T01:43:55.978Z,91.14
2019-05-25T01:50:24.700Z,91.41
2019-05-25T01:56:54.640Z,90.90
2019-05-25T02:03:22.541Z,90.69
2019-05-25T02:10:01.499Z,91.20
2019-05-25T02:16:17.418Z,90.60
2019-05-25T02:22:43.238Z,91.09
2019-05-25T02:29:09.058Z,91.32
2019-05-25T02:35:45.989Z,90.81
2019-05-25T02:42:13.613Z,90.06
2019-05-25T02:48:40.655Z,90.40
2019-05-25T02:55:33.640Z,90.44
2019-05-25T03:01:49.468Z,91.18
2019-05-25T03:08:22.818Z,91.13
2019-05-25T03:18:24.182Z,91.38
2019-05-25T03:25:03.084Z,92.26
2019-05-25T03:31:33.186Z,93.21
2019-05-25T03:37:23.608Z,92.69
2019-05-25T03:43:53.399Z,92.48
2019-05-25T03:50:30.398Z,93.17
2019-05-25T03:56:56.217Z,93.69
2019-05-25T04:03:21.795Z,93.40
2019-05-25T04:09:49.876Z,93.31
2019-05-25T04:20:03.959Z,92.75
2019-05-25T04:26:40.886Z,92.96
2019-05-25T04:33:06.452Z,93.01
2019-05-25T04:38:58.191Z,93.40
2019-05-25T04:45:39.198Z,93.35
2019-05-25T04:52:04.749Z,92.80
2019-05-25T04:58:30.602Z,92.76
2019-05-25T05:04:57.272Z,92.59
2019-05-25T05:11:38.276Z,91.94
2019-05-25T05:21:42.591Z,91.74
2019-05-25T05:28:07.397Z,89.98
2019-05-25T05:34:37.010Z,90.16
2019-05-25T05:41:21.280Z,89.82
2019-05-25T05:47:52.129Z,89.50
2019-05-25T05:54:18.738Z,88.11
2019-05-25T06:00:44.584Z,87.10
2019-05-25T06:07:21.487Z,85.03
2019-05-25T06:13:52.581Z,79.42
2019-05-25T06:24:09.691Z,74.24
2019-05-25T06:30:34.495Z,71.96
2019-05-25T06:36:57.960Z,69.64
2019-05-25T06:43:26.149Z,62.44
2019-05-25T06:49:53.749Z,67.41
2019-05-25T06:56:17.545Z,64.40
2019-05-25T07:02:56.573Z,61.99
2019-05-25T07:09:20.310Z,60.69
2019-05-25T07:15:46.977Z,58.86
2019-05-25T07:25:25.759Z,58.37
2019-05-25T07:31:51.905Z,60.01
2019-05-25T07:37:53.287Z,58.40
2019-05-25T07:44:19.957Z,54.55
2019-05-25T07:50:50.179Z,55.82
2019-05-25T07:57:29.130Z,54.57
2019-05-25T08:04:03.724Z,55.73
2019-05-25T08:10:29.860Z,54.13
2019-05-25T08:16:57.704Z,54.54
2019-05-25T08:27:11.780Z,55.20
2019-05-25T08:33:48.755Z,55.70
2019-05-25T08:40:15.457Z,55.93
2019-05-25T08:46:40.362Z,53.42
2019-05-25T08:53:23.189Z,53.59
2019-05-25T08:59:46.933Z,51.30
2019-05-25T09:06:14.645Z,47.32
2019-05-25T09:12:43.841Z,49.47
2019-05-25T09:19:22.790Z,48.60
2019-05-25T09:32:23.527Z,49.99
2019-05-25T09:39:05.499Z,50.28
2019-05-25T09:45:32.124Z,51.25
2019-05-25T09:52:00.840Z,49.83
2019-05-25T09:58:40.135Z,51.90
2019-05-25T10:05:12.017Z,51.54
2019-05-25T10:11:38.839Z,49.86
2019-05-25T10:18:07.594Z,48.68
2019-05-25T10:24:52.315Z,47.26
2019-05-25T10:34:52.644Z,46.11
2019-05-25T10:41:18.217Z,45.39
2019-05-25T10:47:46.101Z,43.69
2019-05-25T10:54:26.260Z,43.49
2019-05-25T11:00:56.123Z,44.36
2019-05-25T11:07:21.940Z,44.30
2019-05-25T11:13:58.874Z,47.21
2019-05-25T11:20:24.432Z,42.03
2019-05-25T11:26:52.331Z,42.40
2019-05-25T11:36:55.272Z,43.06
2019-05-25T11:43:21.122Z,40.30
2019-05-25T11:49:58.042Z,41.47
2019-05-25T11:56:25.079Z,41.61
2019-05-25T12:02:50.918Z,41.30
2019-05-25T12:09:20.764Z,42.61
2019-05-25T12:15:51.271Z,43.26
2019-05-25T12:22:17.456Z,47.03
2019-05-25T12:28:48.316Z,47.45
2019-05-25T12:38:13.546Z,46.25
2019-05-25T12:44:53.879Z,46.51
2019-05-25T12:51:20.715Z,46.52
2019-05-25T12:57:51.496Z,47.90
2019-05-25T13:04:19.071Z,45.97
2019-05-25T13:11:02.927Z,46.77
2019-05-25T13:17:27.154Z,45.73
2019-05-25T13:24:00.109Z,46.00
2019-05-25T13:30:39.736Z,45.31
2019-05-25T13:40:39.814Z,45.42
2019-05-25T13:47:03.821Z,46.46
2019-05-25T13:53:33.030Z,46.71
2019-05-25T13:59:58.491Z,45.54
2019-05-25T14:06:37.439Z,45.48
2019-05-25T14:13:03.269Z,47.14
2019-05-25T14:19:27.057Z,45.07
2019-05-25T14:26:05.749Z,47.14
2019-05-25T14:32:33.647Z,47.55
2019-05-25T14:42:34.798Z,45.98
2019-05-25T14:49:02.445Z,46.67
2019-05-25T14:54:52.100Z,45.13
2019-05-25T15:01:29.036Z,45.74
2019-05-25T15:07:56.639Z,46.15
2019-05-25T15:14:22.688Z,46.70
2019-05-25T15:20:52.443Z,44.52
2019-05-25T15:27:32.508Z,44.15
2019-05-25T15:34:00.111Z,42.77
2019-05-25T15:44:03.321Z,42.27
2019-05-25T15:50:30.955Z,42.01
2019-05-25T15:57:09.908Z,44.77
2019-05-25T16:03:38.623Z,43.78
2019-05-25T16:10:06.816Z,47.25
2019-05-25T16:13:46.892Z,48.25
2019-05-25T16:20:15.838Z,49.01
2019-05-25T16:26:55.814Z,50.17
2019-05-25T16:33:23.643Z,51.32
2019-05-25T16:39:49.460Z,51.69
2019-05-25T16:46:03.933Z,53.24
2019-05-25T16:52:44.937Z,53.33
2019-05-25T16:59:12.009Z,53.60
2019-05-25T17:05:37.789Z,54.51
2019-05-25T17:12:16.406Z,55.45
2019-05-25T17:18:42.561Z,57.00
2019-05-25T17:25:08.378Z,58.04
2019-05-25T17:31:35.482Z,56.60
2019-05-25T17:38:12.910Z,56.98
2019-05-25T17:48:04.798Z,60.51
2019-05-25T17:54:18.716Z,61.47
2019-05-25T18:00:52.607Z,63.32
2019-05-25T18:07:19.443Z,67.79
2019-05-25T18:13:58.391Z,68.52
2019-05-25T18:20:26.227Z,69.38
2019-05-25T18:26:52.048Z,70.03
2019-05-25T18:33:32.781Z,71.38
2019-05-25T18:39:58.629Z,71.82
2019-05-25T18:49:59.787Z,70.49
2019-05-25T18:55:51.269Z,70.79
2019-05-25T19:02:20.121Z,72.28
2019-05-25T19:08:59.874Z,73.09
2019-05-25T19:15:15.801Z,73.10
2019-05-25T19:21:08.292Z,74.35
2019-05-25T19:27:33.101Z,75.09
2019-05-25T19:34:09.682Z,76.05
2019-05-25T19:40:39.950Z,77.38
2019-05-25T19:50:56.144Z,78.85
2019-05-25T19:56:45.445Z,79.53
2019-05-25T20:03:13.286Z,79.88
2019-05-25T20:09:52.241Z,80.97
2019-05-25T20:16:24.927Z,82.27
2019-05-25T20:22:50.592Z,82.76
2019-05-25T20:29:27.498Z,84.05
2019-05-25T20:35:53.702Z,85.88
2019-05-25T20:42:21.540Z,85.33
2019-05-25T20:52:00.021Z,86.22
2019-05-25T20:58:25.875Z,88.15
2019-05-25T21:05:02.793Z,88.72
2019-05-25T21:15:15.077Z,89.07
2019-05-25T21:21:42.926Z,90.44
2019-05-25T21:28:06.720Z,91.04
2019-05-25T21:34:47.446Z,90.98
2019-05-25T21:41:20.418Z,92.82
2019-05-25T21:47:46.404Z,91.05
2019-05-25T21:53:42.928Z,90.24
2019-05-25T22:00:29.959Z,90.92
2019-05-25T22:06:57.799Z,90.92
2019-05-25T22:13:28.280Z,91.28
2019-05-25T22:20:02.321Z,91.84
2019-05-25T22:26:28.167Z,91.91
2019-05-25T22:32:56.885Z,92.58
2019-05-25T22:39:23.059Z,92.39
2019-05-25T22:46:02.011Z,92.42
2019-05-25T22:55:31.046Z,93.35
2019-05-25T23:01:20.862Z,94.31
2019-05-25T23:07:48.749Z,94.50
2019-05-25T23:14:15.803Z,93.64
2019-05-25T23:20:56.749Z,92.61
2019-05-25T23:27:22.568Z,92.19
2019-05-25T23:33:50.171Z,94.16
2019-05-25T23:40:31.177Z,93.66
2019-05-25T23:46:54.980Z,94.82
2019-05-25T23:56:32.524Z,93.87
